sensor_id;sensor_type;location;lat;lon;timestamp;P1;durP1;ratioP1;P2;durP2;ratioP2
74269;SDS011;62754;48.252;11.654;2023-07-08T00:01:19;10.60;;;4.45;;
74269;SDS011;62754;48.252;11.654;2023-07-08T00:03:45;8.07;;;4.32;;
74269;SDS011;62754;48.252;11.654;2023-07-08T00:06:20;8.15;;;4.53;;
74269;SDS011;62754;48.252;11.654;2023-07-08T00:08:47;7.82;;;4.05;;
74269;SDS011;62754;48.252;11.654;2023-07-08T00:11:13;7.18;;;4.32;;
74269;SDS011;62754;48.252;11.654;2023-07-08T00:13:42;8.38;;;4.40;;
74269;SDS011;62754;48.252;11.654;2023-07-08T00:16:09;8.88;;;4.53;;
74269;SDS011;62754;48.252;11.654;2023-07-08T00:18:39;10.30;;;3.92;;
74269;SDS011;62754;48.252;11.654;2023-07-08T00:21:08;8.25;;;4.45;;
74269;SDS011;62754;48.252;11.654;2023-07-08T00:23:43;8.05;;;4.78;;
74269;SDS011;62754;48.252;11.654;2023-07-08T00:26:19;7.07;;;3.63;;
74269;SDS011;62754;48.252;11.654;2023-07-08T00:28:48;9.50;;;3.90;;
74269;SDS011;62754;48.252;11.654;2023-07-08T00:31:14;8.90;;;4.25;;
74269;SDS011;62754;48.252;11.654;2023-07-08T00:33:45;7.22;;;4.20;;
74269;SDS011;62754;48.252;11.654;2023-07-08T00:36:11;7.57;;;4.47;;
74269;SDS011;62754;48.252;11.654;2023-07-08T00:38:39;9.30;;;4.30;;
74269;SDS011;62754;48.252;11.654;2023-07-08T00:41:12;7.60;;;3.78;;
74269;SDS011;62754;48.252;11.654;2023-07-08T00:43:51;8.77;;;4.03;;
74269;SDS011;62754;48.252;11.654;2023-07-08T00:48:55;10.77;;;4.22;;
74269;SDS011;62754;48.252;11.654;2023-07-08T00:51:21;9.10;;;4.32;;
74269;SDS011;62754;48.252;11.654;2023-07-08T00:53:50;6.63;;;3.85;;
74269;SDS011;62754;48.252;11.654;2023-07-08T00:56:21;6.93;;;3.63;;
74269;SDS011;62754;48.252;11.654;2023-07-08T00:58:52;7.30;;;3.75;;
74269;SDS011;62754;48.252;11.654;2023-07-08T01:01:25;6.95;;;3.72;;
74269;SDS011;62754;48.252;11.654;2023-07-08T01:03:54;9.07;;;3.92;;
74269;SDS011;62754;48.252;11.654;2023-07-08T01:06:23;7.28;;;4.30;;
74269;SDS011;62754;48.252;11.654;2023-07-08T01:08:50;7.53;;;3.80;;
74269;SDS011;62754;48.252;11.654;2023-07-08T01:11:19;7.10;;;3.85;;
74269;SDS011;62754;48.252;11.654;2023-07-08T01:13:46;5.82;;;3.75;;
74269;SDS011;62754;48.252;11.654;2023-07-08T01:16:15;7.10;;;3.67;;
74269;SDS011;62754;48.252;11.654;2023-07-08T01:24:06;7.43;;;4.00;;
74269;SDS011;62754;48.252;11.654;2023-07-08T01:26:35;7.30;;;3.47;;
74269;SDS011;62754;48.252;11.654;2023-07-08T01:29:07;6.13;;;3.90;;
74269;SDS011;62754;48.252;11.654;2023-07-08T01:31:38;8.43;;;3.70;;
74269;SDS011;62754;48.252;11.654;2023-07-08T01:34:08;6.78;;;3.60;;
74269;SDS011;62754;48.252;11.654;2023-07-08T01:36:37;6.57;;;3.67;;
74269;SDS011;62754;48.252;11.654;2023-07-08T01:39:14;6.05;;;3.50;;
74269;SDS011;62754;48.252;11.654;2023-07-08T01:41:45;7.00;;;4.20;;
74269;SDS011;62754;48.252;11.654;2023-07-08T01:47:00;7.75;;;4.28;;
74269;SDS011;62754;48.252;11.654;2023-07-08T01:49:27;8.10;;;4.63;;
74269;SDS011;62754;48.252;11.654;2023-07-08T01:51:53;7.65;;;3.80;;
74269;SDS011;62754;48.252;11.654;2023-07-08T01:54:23;8.05;;;3.80;;
74269;SDS011;62754;48.252;11.654;2023-07-08T01:56:53;8.45;;;4.03;;
74269;SDS011;62754;48.252;11.654;2023-07-08T01:59:22;8.07;;;3.72;;
74269;SDS011;62754;48.252;11.654;2023-07-08T02:01:48;8.18;;;3.90;;
74269;SDS011;62754;48.252;11.654;2023-07-08T02:04:19;8.45;;;4.10;;
74269;SDS011;62754;48.252;11.654;2023-07-08T02:06:50;6.75;;;4.10;;
74269;SDS011;62754;48.252;11.654;2023-07-08T02:09:18;6.18;;;3.80;;
74269;SDS011;62754;48.252;11.654;2023-07-08T02:11:44;10.02;;;4.20;;
74269;SDS011;62754;48.252;11.654;2023-07-08T02:14:12;8.15;;;4.60;;
74269;SDS011;62754;48.252;11.654;2023-07-08T02:16:37;9.90;;;4.55;;
74269;SDS011;62754;48.252;11.654;2023-07-08T02:19:03;9.88;;;4.28;;
74269;SDS011;62754;48.252;11.654;2023-07-08T02:21:29;7.97;;;4.22;;
74269;SDS011;62754;48.252;11.654;2023-07-08T02:23:57;6.53;;;3.78;;
74269;SDS011;62754;48.252;11.654;2023-07-08T02:26:23;9.40;;;4.15;;
74269;SDS011;62754;48.252;11.654;2023-07-08T02:28:49;8.23;;;4.28;;
74269;SDS011;62754;48.252;11.654;2023-07-08T02:31:15;7.30;;;3.88;;
74269;SDS011;62754;48.252;11.654;2023-07-08T02:33:40;6.97;;;3.97;;
74269;SDS011;62754;48.252;11.654;2023-07-08T02:36:06;6.05;;;4.00;;
74269;SDS011;62754;48.252;11.654;2023-07-08T02:38:34;7.78;;;4.30;;
74269;SDS011;62754;48.252;11.654;2023-07-08T02:41:00;9.18;;;4.03;;
74269;SDS011;62754;48.252;11.654;2023-07-08T02:43:26;8.07;;;4.47;;
74269;SDS011;62754;48.252;11.654;2023-07-08T02:45:56;7.95;;;3.78;;
74269;SDS011;62754;48.252;11.654;2023-07-08T02:48:22;6.90;;;4.20;;
74269;SDS011;62754;48.252;11.654;2023-07-08T02:50:50;8.45;;;4.40;;
74269;SDS011;62754;48.252;11.654;2023-07-08T02:53:16;7.72;;;4.32;;
74269;SDS011;62754;48.252;11.654;2023-07-08T02:55:44;8.35;;;4.03;;
74269;SDS011;62754;48.252;11.654;2023-07-08T02:58:12;8.13;;;4.30;;
74269;SDS011;62754;48.252;11.654;2023-07-08T03:00:37;7.10;;;3.72;;
74269;SDS011;62754;48.252;11.654;2023-07-08T03:03:03;7.03;;;4.07;;
74269;SDS011;62754;48.252;11.654;2023-07-08T03:05:32;7.18;;;3.90;;
74269;SDS011;62754;48.252;11.654;2023-07-08T03:08:02;7.47;;;3.97;;
74269;SDS011;62754;48.252;11.654;2023-07-08T03:10:30;8.27;;;4.97;;
74269;SDS011;62754;48.252;11.654;2023-07-08T03:12:58;7.15;;;4.05;;
74269;SDS011;62754;48.252;11.654;2023-07-08T03:15:26;8.25;;;4.32;;
74269;SDS011;62754;48.252;11.654;2023-07-08T03:17:52;6.95;;;4.25;;
74269;SDS011;62754;48.252;11.654;2023-07-08T03:20:17;7.03;;;4.15;;
74269;SDS011;62754;48.252;11.654;2023-07-08T03:22:43;7.22;;;4.07;;
74269;SDS011;62754;48.252;11.654;2023-07-08T03:25:11;7.10;;;4.20;;
74269;SDS011;62754;48.252;11.654;2023-07-08T03:27:39;7.50;;;4.32;;
74269;SDS011;62754;48.252;11.654;2023-07-08T03:30:05;8.93;;;4.40;;
74269;SDS011;62754;48.252;11.654;2023-07-08T03:34:59;8.32;;;4.38;;
74269;SDS011;62754;48.252;11.654;2023-07-08T03:37:27;6.70;;;4.15;;
74269;SDS011;62754;48.252;11.654;2023-07-08T03:39:53;8.02;;;4.57;;
74269;SDS011;62754;48.252;11.654;2023-07-08T03:42:21;9.23;;;4.75;;
74269;SDS011;62754;48.252;11.654;2023-07-08T03:44:49;6.70;;;4.22;;
74269;SDS011;62754;48.252;11.654;2023-07-08T03:47:17;6.53;;;3.80;;
74269;SDS011;62754;48.252;11.654;2023-07-08T03:49:43;7.05;;;4.00;;
74269;SDS011;62754;48.252;11.654;2023-07-08T03:52:10;8.05;;;4.32;;
74269;SDS011;62754;48.252;11.654;2023-07-08T03:54:43;6.80;;;3.72;;
74269;SDS011;62754;48.252;11.654;2023-07-08T03:57:09;8.38;;;4.05;;
74269;SDS011;62754;48.252;11.654;2023-07-08T03:59:35;6.05;;;3.72;;
74269;SDS011;62754;48.252;11.654;2023-07-08T04:02:01;7.40;;;3.72;;
74269;SDS011;62754;48.252;11.654;2023-07-08T04:04:31;9.18;;;4.55;;
74269;SDS011;62754;48.252;11.654;2023-07-08T04:07:02;8.23;;;4.32;;
74269;SDS011;62754;48.252;11.654;2023-07-08T04:09:30;6.88;;;3.75;;
74269;SDS011;62754;48.252;11.654;2023-07-08T04:11:58;6.57;;;3.80;;
74269;SDS011;62754;48.252;11.654;2023-07-08T04:14:24;7.85;;;3.97;;
74269;SDS011;62754;48.252;11.654;2023-07-08T04:16:54;8.00;;;4.25;;
74269;SDS011;62754;48.252;11.654;2023-07-08T04:19:24;7.18;;;4.13;;
74269;SDS011;62754;48.252;11.654;2023-07-08T04:21:51;8.00;;;4.35;;
74269;SDS011;62754;48.252;11.654;2023-07-08T04:24:19;7.18;;;4.03;;
74269;SDS011;62754;48.252;11.654;2023-07-08T04:26:45;6.45;;;3.65;;
74269;SDS011;62754;48.252;11.654;2023-07-08T04:29:15;6.80;;;3.88;;
74269;SDS011;62754;48.252;11.654;2023-07-08T04:31:45;6.90;;;4.28;;
74269;SDS011;62754;48.252;11.654;2023-07-08T04:34:14;7.13;;;4.18;;
74269;SDS011;62754;48.252;11.654;2023-07-08T04:36:41;7.18;;;3.65;;
74269;SDS011;62754;48.252;11.654;2023-07-08T04:39:12;8.43;;;4.47;;
74269;SDS011;62754;48.252;11.654;2023-07-08T04:41:40;6.55;;;4.43;;
74269;SDS011;62754;48.252;11.654;2023-07-08T04:44:07;7.20;;;4.50;;
74269;SDS011;62754;48.252;11.654;2023-07-08T04:49:02;8.18;;;4.13;;
74269;SDS011;62754;48.252;11.654;2023-07-08T04:51:29;6.72;;;4.38;;
74269;SDS011;62754;48.252;11.654;2023-07-08T04:53:55;7.93;;;4.57;;
74269;SDS011;62754;48.252;11.654;2023-07-08T04:56:20;7.25;;;4.40;;
74269;SDS011;62754;48.252;11.654;2023-07-08T04:58:46;8.50;;;4.25;;
74269;SDS011;62754;48.252;11.654;2023-07-08T05:01:12;6.50;;;3.80;;
74269;SDS011;62754;48.252;11.654;2023-07-08T05:03:42;8.10;;;4.05;;
74269;SDS011;62754;48.252;11.654;2023-07-08T05:06:10;7.75;;;4.30;;
74269;SDS011;62754;48.252;11.654;2023-07-08T05:08:36;10.65;;;4.60;;
74269;SDS011;62754;48.252;11.654;2023-07-08T05:11:04;8.57;;;4.07;;
74269;SDS011;62754;48.252;11.654;2023-07-08T05:13:29;6.93;;;4.28;;
74269;SDS011;62754;48.252;11.654;2023-07-08T05:15:57;9.13;;;4.13;;
74269;SDS011;62754;48.252;11.654;2023-07-08T05:18:25;8.38;;;4.18;;
74269;SDS011;62754;48.252;11.654;2023-07-08T05:20:53;7.93;;;4.38;;
74269;SDS011;62754;48.252;11.654;2023-07-08T05:23:21;7.88;;;4.45;;
74269;SDS011;62754;48.252;11.654;2023-07-08T05:25:47;6.80;;;3.90;;
74269;SDS011;62754;48.252;11.654;2023-07-08T05:28:13;8.18;;;4.00;;
74269;SDS011;62754;48.252;11.654;2023-07-08T05:30:42;6.25;;;4.22;;
74269;SDS011;62754;48.252;11.654;2023-07-08T05:33:10;8.95;;;4.85;;
74269;SDS011;62754;48.252;11.654;2023-07-08T05:35:36;8.15;;;4.38;;
74269;SDS011;62754;48.252;11.654;2023-07-08T05:38:04;7.38;;;4.45;;
74269;SDS011;62754;48.252;11.654;2023-07-08T05:40:30;7.45;;;4.25;;
74269;SDS011;62754;48.252;11.654;2023-07-08T05:42:58;8.15;;;4.35;;
74269;SDS011;62754;48.252;11.654;2023-07-08T05:45:24;9.05;;;4.55;;
74269;SDS011;62754;48.252;11.654;2023-07-08T05:47:52;8.07;;;4.57;;
74269;SDS011;62754;48.252;11.654;2023-07-08T05:50:20;9.88;;;4.50;;
74269;SDS011;62754;48.252;11.654;2023-07-08T05:52:45;6.57;;;3.80;;
74269;SDS011;62754;48.252;11.654;2023-07-08T05:55:11;8.38;;;4.90;;
74269;SDS011;62754;48.252;11.654;2023-07-08T05:57:37;6.75;;;4.53;;
74269;SDS011;62754;48.252;11.654;2023-07-08T06:00:03;6.72;;;4.55;;
74269;SDS011;62754;48.252;11.654;2023-07-08T06:02:29;6.78;;;4.30;;
74269;SDS011;62754;48.252;11.654;2023-07-08T06:04:55;6.90;;;3.95;;
74269;SDS011;62754;48.252;11.654;2023-07-08T06:07:21;7.70;;;4.78;;
74269;SDS011;62754;48.252;11.654;2023-07-08T06:09:49;6.18;;;3.83;;
74269;SDS011;62754;48.252;11.654;2023-07-08T06:12:15;8.38;;;4.07;;
74269;SDS011;62754;48.252;11.654;2023-07-08T06:14:43;7.38;;;4.30;;
74269;SDS011;62754;48.252;11.654;2023-07-08T06:17:11;5.88;;;3.83;;
74269;SDS011;62754;48.252;11.654;2023-07-08T06:19:36;6.25;;;4.30;;
74269;SDS011;62754;48.252;11.654;2023-07-08T06:22:04;7.88;;;4.25;;
74269;SDS011;62754;48.252;11.654;2023-07-08T06:24:32;9.73;;;4.40;;
74269;SDS011;62754;48.252;11.654;2023-07-08T06:26:58;6.47;;;4.00;;
74269;SDS011;62754;48.252;11.654;2023-07-08T06:29:24;8.13;;;4.15;;
74269;SDS011;62754;48.252;11.654;2023-07-08T06:31:50;7.30;;;4.15;;
74269;SDS011;62754;48.252;11.654;2023-07-08T06:34:20;6.82;;;4.10;;
74269;SDS011;62754;48.252;11.654;2023-07-08T06:36:46;7.63;;;4.40;;
74269;SDS011;62754;48.252;11.654;2023-07-08T06:39:11;6.28;;;3.97;;
74269;SDS011;62754;48.252;11.654;2023-07-08T06:41:37;9.35;;;4.63;;
74269;SDS011;62754;48.252;11.654;2023-07-08T06:44:03;8.73;;;4.43;;
74269;SDS011;62754;48.252;11.654;2023-07-08T06:46:31;9.57;;;4.88;;
74269;SDS011;62754;48.252;11.654;2023-07-08T06:48:57;8.73;;;4.47;;
74269;SDS011;62754;48.252;11.654;2023-07-08T06:51:25;8.02;;;4.00;;
74269;SDS011;62754;48.252;11.654;2023-07-08T06:53:51;9.20;;;4.50;;
74269;SDS011;62754;48.252;11.654;2023-07-08T06:56:17;8.80;;;4.55;;
74269;SDS011;62754;48.252;11.654;2023-07-08T06:58:47;8.77;;;4.40;;
74269;SDS011;62754;48.252;11.654;2023-07-08T07:01:13;8.15;;;4.70;;
74269;SDS011;62754;48.252;11.654;2023-07-08T07:03:39;13.30;;;4.68;;
74269;SDS011;62754;48.252;11.654;2023-07-08T07:06:11;8.90;;;4.95;;
74269;SDS011;62754;48.252;11.654;2023-07-08T07:08:39;8.18;;;4.30;;
74269;SDS011;62754;48.252;11.654;2023-07-08T07:11:05;8.38;;;4.80;;
74269;SDS011;62754;48.252;11.654;2023-07-08T07:13:35;7.50;;;4.70;;
74269;SDS011;62754;48.252;11.654;2023-07-08T07:16:05;9.95;;;4.80;;
74269;SDS011;62754;48.252;11.654;2023-07-08T07:18:33;8.38;;;4.53;;
74269;SDS011;62754;48.252;11.654;2023-07-08T07:21:01;8.95;;;4.75;;
74269;SDS011;62754;48.252;11.654;2023-07-08T07:23:27;11.10;;;4.93;;
74269;SDS011;62754;48.252;11.654;2023-07-08T07:25:55;7.40;;;5.00;;
74269;SDS011;62754;48.252;11.654;2023-07-08T07:28:23;10.15;;;4.43;;
74269;SDS011;62754;48.252;11.654;2023-07-08T07:30:55;13.73;;;5.32;;
74269;SDS011;62754;48.252;11.654;2023-07-08T07:33:26;11.32;;;5.00;;
74269;SDS011;62754;48.252;11.654;2023-07-08T07:35:54;7.95;;;4.38;;
74269;SDS011;62754;48.252;11.654;2023-07-08T07:38:20;7.32;;;4.38;;
74269;SDS011;62754;48.252;11.654;2023-07-08T07:40:46;7.50;;;4.57;;
74269;SDS011;62754;48.252;11.654;2023-07-08T07:43:19;9.55;;;4.82;;
74269;SDS011;62754;48.252;11.654;2023-07-08T07:45:56;8.20;;;4.63;;
74269;SDS011;62754;48.252;11.654;2023-07-08T07:48:24;8.73;;;4.53;;
74269;SDS011;62754;48.252;11.654;2023-07-08T07:50:51;10.15;;;4.95;;
74269;SDS011;62754;48.252;11.654;2023-07-08T07:53:17;10.40;;;4.88;;
74269;SDS011;62754;48.252;11.654;2023-07-08T07:55:46;9.23;;;5.07;;
74269;SDS011;62754;48.252;11.654;2023-07-08T07:58:14;9.65;;;5.07;;
74269;SDS011;62754;48.252;11.654;2023-07-08T08:00:39;9.88;;;4.72;;
74269;SDS011;62754;48.252;11.654;2023-07-08T08:03:07;7.10;;;4.53;;
74269;SDS011;62754;48.252;11.654;2023-07-08T08:05:35;11.25;;;4.75;;
74269;SDS011;62754;48.252;11.654;2023-07-08T08:08:03;9.07;;;4.90;;
74269;SDS011;62754;48.252;11.654;2023-07-08T08:10:31;7.70;;;4.70;;
74269;SDS011;62754;48.252;11.654;2023-07-08T08:12:59;9.57;;;5.32;;
74269;SDS011;62754;48.252;11.654;2023-07-08T08:15:30;10.32;;;4.95;;
74269;SDS011;62754;48.252;11.654;2023-07-08T08:17:56;9.32;;;5.03;;
74269;SDS011;62754;48.252;11.654;2023-07-08T08:20:24;12.70;;;5.22;;
74269;SDS011;62754;48.252;11.654;2023-07-08T08:22:56;9.95;;;5.05;;
74269;SDS011;62754;48.252;11.654;2023-07-08T08:25:22;10.95;;;4.82;;
74269;SDS011;62754;48.252;11.654;2023-07-08T08:27:51;8.27;;;5.10;;
74269;SDS011;62754;48.252;11.654;2023-07-08T08:30:19;8.35;;;5.00;;
74269;SDS011;62754;48.252;11.654;2023-07-08T08:32:49;12.88;;;5.88;;
74269;SDS011;62754;48.252;11.654;2023-07-08T08:35:15;9.90;;;5.30;;
74269;SDS011;62754;48.252;11.654;2023-07-08T08:37:43;16.15;;;6.03;;
74269;SDS011;62754;48.252;11.654;2023-07-08T08:40:11;9.77;;;5.45;;
74269;SDS011;62754;48.252;11.654;2023-07-08T08:42:46;10.73;;;6.10;;
74269;SDS011;62754;48.252;11.654;2023-07-08T08:45:18;8.35;;;5.32;;
74269;SDS011;62754;48.252;11.654;2023-07-08T08:47:45;10.27;;;5.63;;
74269;SDS011;62754;48.252;11.654;2023-07-08T08:52:52;9.27;;;5.25;;
74269;SDS011;62754;48.252;11.654;2023-07-08T08:55:21;7.63;;;4.80;;
74269;SDS011;62754;48.252;11.654;2023-07-08T08:57:49;9.98;;;4.65;;
74269;SDS011;62754;48.252;11.654;2023-07-08T09:00:24;10.88;;;4.93;;
74269;SDS011;62754;48.252;11.654;2023-07-08T09:03:07;9.27;;;4.82;;
74269;SDS011;62754;48.252;11.654;2023-07-08T09:05:42;8.95;;;4.88;;
74269;SDS011;62754;48.252;11.654;2023-07-08T09:08:18;8.60;;;5.32;;
74269;SDS011;62754;48.252;11.654;2023-07-08T09:10:50;9.73;;;5.15;;
74269;SDS011;62754;48.252;11.654;2023-07-08T09:13:30;8.27;;;4.82;;
74269;SDS011;62754;48.252;11.654;2023-07-08T09:16:14;12.05;;;6.18;;
74269;SDS011;62754;48.252;11.654;2023-07-08T09:21:35;9.52;;;5.00;;
74269;SDS011;62754;48.252;11.654;2023-07-08T09:24:14;8.00;;;5.07;;
74269;SDS011;62754;48.252;11.654;2023-07-08T09:26:46;9.55;;;5.50;;
74269;SDS011;62754;48.252;11.654;2023-07-08T09:29:20;9.25;;;5.38;;
74269;SDS011;62754;48.252;11.654;2023-07-08T09:31:47;8.48;;;4.78;;
74269;SDS011;62754;48.252;11.654;2023-07-08T09:36:48;9.38;;;4.88;;
74269;SDS011;62754;48.252;11.654;2023-07-08T09:39:18;9.40;;;5.75;;
74269;SDS011;62754;48.252;11.654;2023-07-08T09:41:48;8.98;;;5.20;;
74269;SDS011;62754;48.252;11.654;2023-07-08T09:44:16;8.30;;;5.40;;
74269;SDS011;62754;48.252;11.654;2023-07-08T09:46:49;9.77;;;5.38;;
74269;SDS011;62754;48.252;11.654;2023-07-08T09:51:46;9.68;;;6.03;;
74269;SDS011;62754;48.252;11.654;2023-07-08T09:56:43;9.85;;;5.07;;
74269;SDS011;62754;48.252;11.654;2023-07-08T09:59:22;8.82;;;5.07;;
74269;SDS011;62754;48.252;11.654;2023-07-08T10:04:23;9.55;;;5.40;;
74269;SDS011;62754;48.252;11.654;2023-07-08T10:06:51;8.48;;;4.72;;
74269;SDS011;62754;48.252;11.654;2023-07-08T10:09:23;8.15;;;5.20;;
74269;SDS011;62754;48.252;11.654;2023-07-08T10:11:58;10.48;;;5.60;;
74269;SDS011;62754;48.252;11.654;2023-07-08T10:16:59;9.88;;;5.03;;
74269;SDS011;62754;48.252;11.654;2023-07-08T10:19:28;7.97;;;5.18;;
74269;SDS011;62754;48.252;11.654;2023-07-08T10:30:11;8.07;;;4.90;;
74269;SDS011;62754;48.252;11.654;2023-07-08T10:44:33;7.57;;;4.80;;
74269;SDS011;62754;48.252;11.654;2023-07-08T10:52:51;7.65;;;5.15;;
74269;SDS011;62754;48.252;11.654;2023-07-08T10:55:51;8.00;;;4.68;;
74269;SDS011;62754;48.252;11.654;2023-07-08T10:58:43;7.40;;;4.93;;
74269;SDS011;62754;48.252;11.654;2023-07-08T11:01:20;10.80;;;5.80;;
74269;SDS011;62754;48.252;11.654;2023-07-08T11:06:32;7.38;;;4.85;;
74269;SDS011;62754;48.252;11.654;2023-07-08T11:09:02;8.27;;;5.03;;
74269;SDS011;62754;48.252;11.654;2023-07-08T11:11:34;6.70;;;4.60;;
74269;SDS011;62754;48.252;11.654;2023-07-08T11:16:59;7.70;;;4.72;;
74269;SDS011;62754;48.252;11.654;2023-07-08T11:23:25;7.28;;;4.85;;
74269;SDS011;62754;48.252;11.654;2023-07-08T11:25:41;9.45;;;5.28;;
74269;SDS011;62754;48.252;11.654;2023-07-08T11:28:10;9.48;;;4.70;;
74269;SDS011;62754;48.252;11.654;2023-07-08T11:30:40;7.68;;;5.22;;
74269;SDS011;62754;48.252;11.654;2023-07-08T11:33:11;7.82;;;4.93;;
74269;SDS011;62754;48.252;11.654;2023-07-08T11:35:39;7.13;;;4.78;;
74269;SDS011;62754;48.252;11.654;2023-07-08T11:38:12;8.30;;;5.30;;
74269;SDS011;62754;48.252;11.654;2023-07-08T11:43:25;7.50;;;4.93;;
74269;SDS011;62754;48.252;11.654;2023-07-08T11:45:56;9.07;;;5.53;;
74269;SDS011;62754;48.252;11.654;2023-07-08T11:48:26;7.78;;;5.05;;
74269;SDS011;62754;48.252;11.654;2023-07-08T11:50:55;8.23;;;4.72;;
74269;SDS011;62754;48.252;11.654;2023-07-08T11:56:01;7.65;;;5.05;;
74269;SDS011;62754;48.252;11.654;2023-07-08T11:58:30;9.18;;;5.95;;
74269;SDS011;62754;48.252;11.654;2023-07-08T12:06:22;6.90;;;4.80;;
74269;SDS011;62754;48.252;11.654;2023-07-08T12:08:54;9.18;;;4.97;;
74269;SDS011;62754;48.252;11.654;2023-07-08T12:11:32;9.80;;;5.13;;
74269;SDS011;62754;48.252;11.654;2023-07-08T12:14:03;7.07;;;5.15;;
74269;SDS011;62754;48.252;11.654;2023-07-08T12:16:30;7.82;;;5.30;;
74269;SDS011;62754;48.252;11.654;2023-07-08T12:18:57;9.57;;;5.18;;
74269;SDS011;62754;48.252;11.654;2023-07-08T12:21:25;6.65;;;4.82;;
74269;SDS011;62754;48.252;11.654;2023-07-08T12:23:54;7.55;;;4.53;;
74269;SDS011;62754;48.252;11.654;2023-07-08T12:26:28;7.97;;;4.75;;
74269;SDS011;62754;48.252;11.654;2023-07-08T12:28:59;6.57;;;4.65;;
74269;SDS011;62754;48.252;11.654;2023-07-08T12:31:29;8.27;;;5.00;;
74269;SDS011;62754;48.252;11.654;2023-07-08T12:33:58;6.22;;;4.60;;
74269;SDS011;62754;48.252;11.654;2023-07-08T12:36:27;7.70;;;4.32;;
74269;SDS011;62754;48.252;11.654;2023-07-08T12:38:58;6.78;;;4.80;;
74269;SDS011;62754;48.252;11.654;2023-07-08T12:41:30;9.35;;;5.00;;
74269;SDS011;62754;48.252;11.654;2023-07-08T12:44:02;8.13;;;5.03;;
74269;SDS011;62754;48.252;11.654;2023-07-08T12:46:33;7.93;;;5.10;;
74269;SDS011;62754;48.252;11.654;2023-07-08T12:48:59;7.05;;;4.53;;
74269;SDS011;62754;48.252;11.654;2023-07-08T12:51:27;7.70;;;4.45;;
74269;SDS011;62754;48.252;11.654;2023-07-08T12:53:55;9.68;;;5.22;;
74269;SDS011;62754;48.252;11.654;2023-07-08T12:56:23;9.57;;;4.75;;
74269;SDS011;62754;48.252;11.654;2023-07-08T12:58:53;6.55;;;4.45;;
74269;SDS011;62754;48.252;11.654;2023-07-08T13:01:24;7.20;;;4.68;;
74269;SDS011;62754;48.252;11.654;2023-07-08T13:03:56;6.57;;;4.40;;
74269;SDS011;62754;48.252;11.654;2023-07-08T13:06:31;6.50;;;4.40;;
74269;SDS011;62754;48.252;11.654;2023-07-08T13:09:13;8.07;;;4.68;;
74269;SDS011;62754;48.252;11.654;2023-07-08T13:12:03;6.70;;;4.20;;
74269;SDS011;62754;48.252;11.654;2023-07-08T13:14:38;6.35;;;4.25;;
74269;SDS011;62754;48.252;11.654;2023-07-08T13:17:04;7.15;;;4.82;;
74269;SDS011;62754;48.252;11.654;2023-07-08T13:19:33;7.10;;;4.30;;
74269;SDS011;62754;48.252;11.654;2023-07-08T13:21:59;9.07;;;4.03;;
74269;SDS011;62754;48.252;11.654;2023-07-08T13:24:29;6.40;;;4.32;;
74269;SDS011;62754;48.252;11.654;2023-07-08T13:26:59;5.90;;;4.20;;
74269;SDS011;62754;48.252;11.654;2023-07-08T13:29:33;9.25;;;4.70;;
74269;SDS011;62754;48.252;11.654;2023-07-08T13:32:03;6.28;;;4.35;;
74269;SDS011;62754;48.252;11.654;2023-07-08T13:34:35;8.07;;;4.47;;
74269;SDS011;62754;48.252;11.654;2023-07-08T13:37:01;7.60;;;4.45;;
74269;SDS011;62754;48.252;11.654;2023-07-08T13:39:31;6.43;;;4.75;;
74269;SDS011;62754;48.252;11.654;2023-07-08T13:42:00;7.35;;;4.40;;
74269;SDS011;62754;48.252;11.654;2023-07-08T13:44:26;8.55;;;3.97;;
74269;SDS011;62754;48.252;11.654;2023-07-08T13:49:27;7.65;;;4.47;;
74269;SDS011;62754;48.252;11.654;2023-07-08T13:54:38;6.85;;;4.40;;
74269;SDS011;62754;48.252;11.654;2023-07-08T13:57:13;8.35;;;4.95;;
74269;SDS011;62754;48.252;11.654;2023-07-08T13:59:44;9.10;;;4.45;;
74269;SDS011;62754;48.252;11.654;2023-07-08T14:02:21;8.27;;;4.05;;
74269;SDS011;62754;48.252;11.654;2023-07-08T14:04:49;7.70;;;4.15;;
74269;SDS011;62754;48.252;11.654;2023-07-08T14:07:18;6.90;;;4.40;;
74269;SDS011;62754;48.252;11.654;2023-07-08T14:09:48;8.65;;;4.45;;
74269;SDS011;62754;48.252;11.654;2023-07-08T14:12:13;6.88;;;4.10;;
74269;SDS011;62754;48.252;11.654;2023-07-08T14:14:39;8.35;;;4.45;;
74269;SDS011;62754;48.252;11.654;2023-07-08T14:17:08;7.30;;;3.83;;
74269;SDS011;62754;48.252;11.654;2023-07-08T14:19:37;6.10;;;4.22;;
74269;SDS011;62754;48.252;11.654;2023-07-08T14:22:20;7.18;;;3.72;;
74269;SDS011;62754;48.252;11.654;2023-07-08T14:24:48;7.50;;;4.20;;
74269;SDS011;62754;48.252;11.654;2023-07-08T14:27:14;6.40;;;4.13;;
74269;SDS011;62754;48.252;11.654;2023-07-08T14:29:40;7.57;;;4.75;;
74269;SDS011;62754;48.252;11.654;2023-07-08T14:32:11;7.30;;;4.30;;
74269;SDS011;62754;48.252;11.654;2023-07-08T14:34:51;8.48;;;4.20;;
74269;SDS011;62754;48.252;11.654;2023-07-08T14:37:20;7.72;;;3.78;;
74269;SDS011;62754;48.252;11.654;2023-07-08T14:39:49;8.10;;;4.15;;
74269;SDS011;62754;48.252;11.654;2023-07-08T14:42:18;8.30;;;4.18;;
74269;SDS011;62754;48.252;11.654;2023-07-08T14:44:47;7.45;;;3.75;;
74269;SDS011;62754;48.252;11.654;2023-07-08T14:47:16;7.30;;;4.05;;
74269;SDS011;62754;48.252;11.654;2023-07-08T14:49:45;6.40;;;4.20;;
74269;SDS011;62754;48.252;11.654;2023-07-08T14:52:16;8.73;;;4.32;;
74269;SDS011;62754;48.252;11.654;2023-07-08T14:54:44;6.63;;;3.92;;
74269;SDS011;62754;48.252;11.654;2023-07-08T14:57:14;9.63;;;4.38;;
74269;SDS011;62754;48.252;11.654;2023-07-08T14:59:41;7.53;;;4.28;;
74269;SDS011;62754;48.252;11.654;2023-07-08T15:02:28;6.95;;;4.50;;
74269;SDS011;62754;48.252;11.654;2023-07-08T15:04:57;6.95;;;4.40;;
74269;SDS011;62754;48.252;11.654;2023-07-08T15:07:23;6.22;;;3.95;;
74269;SDS011;62754;48.252;11.654;2023-07-08T15:09:51;7.32;;;4.22;;
74269;SDS011;62754;48.252;11.654;2023-07-08T15:12:17;8.90;;;4.78;;
74269;SDS011;62754;48.252;11.654;2023-07-08T15:14:43;7.85;;;4.22;;
74269;SDS011;62754;48.252;11.654;2023-07-08T15:17:15;9.38;;;4.30;;
74269;SDS011;62754;48.252;11.654;2023-07-08T15:19:41;9.02;;;4.40;;
74269;SDS011;62754;48.252;11.654;2023-07-08T15:22:09;6.03;;;3.53;;
74269;SDS011;62754;48.252;11.654;2023-07-08T15:24:35;8.93;;;4.22;;
74269;SDS011;62754;48.252;11.654;2023-07-08T15:27:03;7.22;;;4.38;;
74269;SDS011;62754;48.252;11.654;2023-07-08T15:29:33;7.15;;;4.00;;
74269;SDS011;62754;48.252;11.654;2023-07-08T15:31:59;9.27;;;3.80;;
74269;SDS011;62754;48.252;11.654;2023-07-08T15:34:25;6.63;;;3.97;;
74269;SDS011;62754;48.252;11.654;2023-07-08T15:36:51;9.60;;;4.25;;
74269;SDS011;62754;48.252;11.654;2023-07-08T15:39:16;6.88;;;4.13;;
74269;SDS011;62754;48.252;11.654;2023-07-08T15:41:42;6.30;;;4.22;;
74269;SDS011;62754;48.252;11.654;2023-07-08T15:44:09;7.63;;;4.00;;
74269;SDS011;62754;48.252;11.654;2023-07-08T15:46:45;7.57;;;4.15;;
74269;SDS011;62754;48.252;11.654;2023-07-08T15:49:17;7.40;;;3.85;;
74269;SDS011;62754;48.252;11.654;2023-07-08T15:51:46;10.27;;;4.50;;
74269;SDS011;62754;48.252;11.654;2023-07-08T15:54:12;7.00;;;3.88;;
74269;SDS011;62754;48.252;11.654;2023-07-08T15:56:38;7.85;;;3.70;;
74269;SDS011;62754;48.252;11.654;2023-07-08T15:59:05;6.97;;;4.15;;
74269;SDS011;62754;48.252;11.654;2023-07-08T16:01:36;7.28;;;4.22;;
74269;SDS011;62754;48.252;11.654;2023-07-08T16:04:04;7.50;;;4.00;;
74269;SDS011;62754;48.252;11.654;2023-07-08T16:06:39;7.90;;;3.88;;
74269;SDS011;62754;48.252;11.654;2023-07-08T16:09:07;7.97;;;4.53;;